Flight Track Log - Related Links

Times and Time Zones

All times are in EDT time to prevent confusion due to time zone crossing. See the CTL18 flight status page for this flight to view local times or setup timezone preferences in your user account.

Time Position Orientation Groundspeed Altitude Reporting Facility
EDT Latitude Longitude Course Direction KTS MPH feet Rate Location/Type
Wed 06:52:35 PM 42.6653 -83.4069 88° East 121 139 1,400  Level Cleveland Center
Wed 06:52:53 PM 42.6656 -83.3928 88° East 118 136 1,700 776 Climbing Cleveland Center
Wed 06:54:00 PM 42.7011 -83.3917 North 154 177 2,500 716 Climbing Cleveland Center
Wed 06:55:00 PM 42.7439 -83.3965 14° North  Level FlightAware Approximate
Wed 07:02:00 PM 43.0060 -83.4833 321° Northwest  Level FlightAware Approximate
Wed 07:03:00 PM 43.0387 -83.5193 321° Northwest  Level FlightAware Approximate
Wed 07:04:00 PM 43.0713 -83.5554 321° Northwest  Level FlightAware Approximate
Wed 07:05:00 PM 43.1040 -83.5916 321° Northwest  Level FlightAware Approximate
Wed 07:06:00 PM 43.1366 -83.6277 321° Northwest  Level FlightAware Approximate
Wed 07:07:00 PM 43.1693 -83.6640 321° Northwest  Level FlightAware Approximate
Wed 07:08:00 PM 43.2019 -83.7002 321° Northwest  Level FlightAware Approximate
Wed 07:09:00 PM 43.2338 -83.7376 318° Northwest  Level FlightAware Approximate
Wed 07:10:00 PM 43.2652 -83.7759 318° Northwest  Level FlightAware Approximate
Wed 07:11:00 PM 43.2966 -83.8142 318° Northwest  Level FlightAware Approximate
Wed 07:12:00 PM 43.3280 -83.8526 318° Northwest  Level FlightAware Approximate
Wed 07:13:00 PM 43.3593 -83.8910 318° Northwest  Level FlightAware Approximate
Wed 07:14:00 PM 43.3927 -83.9260 324° Northwest  Level FlightAware Approximate
Wed 07:15:00 PM 43.4267 -83.9599 324° Northwest  Level FlightAware Approximate
Wed 07:16:00 PM 43.4607 -83.9939 324° Northwest  Level FlightAware Approximate
Wed 07:17:00 PM 43.4946 -84.0279 324° Northwest  Level FlightAware Approximate
Wed 07:18:00 PM 43.5167 -84.0667 305° West  Level FlightAware Approximate
Wed 07:19:00 PM 43.5329 -84.0796 305° West  Level Estimated
Wed 07:20:00 PM 43.5329 -84.0796 305° West  Level Estimated
Wed 07:21:00 PM 43.5329 -84.0796 305° West  Level Estimated
Wed 07:22:00 PM 43.5329 -84.0796 305° West  Level Estimated
Wed 07:23:00 PM 43.5329 -84.0796 305° West  Level Estimated
Wed 07:24:00 PM 43.5329 -84.0796 305° West  Level Estimated

Login

Don't have an account? Register now (free) for customized features, flight alerts, and more!